Latest Weather Observations for Moranbah Airport

IDQ60801

Issued at 11:35 am EST Wednesday 26 November 2014 (issued every 30 minutes, with the page automatically refreshed every 10 minutes)

About weather observations | Map of weather stations | Latest weather observations for QLD | Other Formats
Station Details ID: 034035 Name: MORANBAH AIRPORT Lat: -22.06 Lon: 148.08 Height: 232.2 m
Data from the previous 72 hours. | See also: Recent months at Moranbah Airport
Date/Time
EST
Temp
°C
App
Temp
°C
Dew
Point
Rel
Hum
%
Delta-T
°C
Wind Press
QNH
hPa
Press
MSL
hPa
Rain
since 9 am
mm
Dir
 
Spd
km/h
Gust
km/h
Spd
kts
Gust
kts
26/11:30am 33.4 31.6 15.4 34 11.3 ESE 19 28 10 15 1013.3 1011.9 0.0
26/11:00am 33.0 30.4 15.9 35 10.8 ESE 24 35 13 19 1013.7 1012.3 0.0
26/10:30am 31.5 29.3 17.0 41 9.3 E 24 35 13 19 1014.0 1012.6 0.0
26/10:00am 30.9 30.2 18.6 48 8.0 E 20 28 11 15 1014.5 1013.1 0.0
26/09:30am 30.6 30.1 19.0 50 7.6 ENE 20 30 11 16 1014.8 1013.4 0.0
26/09:00am 30.4 31.7 20.9 57 6.4 E 15 26 8 14 1015.0 1013.6 0.0
26/08:30am 28.8 29.1 20.5 61 5.5 E 19 26 10 14 1015.1 1013.7 0.0
26/08:00am 28.0 27.7 20.3 63 5.1 E 22 33 12 18 1015.0 1013.6 0.0
26/07:30am 26.0 25.8 20.6 72 3.6 E 22 28 12 15 1015.3 1013.9 0.0
26/07:00am 25.4 25.5 20.4 74 3.3 ESE 20 28 11 15 1014.9 1013.5 0.0
26/06:30am 24.3 24.6 20.4 79 2.6 ESE 19 22 10 12 1014.7 1013.3 0.0
26/06:00am 23.1 24.4 20.2 84 1.9 ESE 13 17 7 9 1014.1 1012.7 0.0
26/05:30am 21.7 22.8 19.6 88 1.4 SE 13 17 7 9 1013.9 1012.5 0.0
26/05:00am 21.4 22.7 19.3 88 1.3 SSE 11 15 6 8 1013.5 1012.1 0.0
26/04:30am 21.2 22.3 18.8 86 1.5 SSE 11 11 6 6 1013.2 1011.8 0.0
26/04:00am 21.6 23.2 19.2 86 1.5 S 9 11 5 6 1013.2 1011.8 0.0
26/03:30am 21.9 23.9 19.1 84 1.8 SE 7 11 4 6 1013.1 1011.7 0.0
26/03:00am 22.4 23.3 19.2 82 2.1 SE 13 15 7 8 1013.0 1011.6 0.0
26/02:30am 23.2 23.9 19.6 80 2.3 SE 15 20 8 11 1012.9 1011.5 0.0
26/02:00am 22.6 23.6 19.4 82 2.1 SE 13 17 7 9 1013.1 1011.7 0.0
26/01:30am 22.5 24.4 18.9 80 2.3 ESE 7 9 4 5 1012.9 1011.5 0.0
26/01:00am 23.1 24.0 19.3 79 2.4 ESE 13 15 7 8 1013.1 1011.7 0.0
26/12:30am 23.1 24.1 18.6 76 2.9 E 11 13 6 7 1013.2 1011.8 0.0
26/12:00am 23.5 24.6 18.8 75 3.0 ESE 11 15 6 8 1013.8 1012.4 0.0
 
Date/Time
EST
Temp
°C
App
Temp
°C
Dew
Point
Rel
Hum
%
Delta-T
°C
Wind Press
QNH
hPa
Press
MSL
hPa
Rain
since 9 am
mm
Dir
 
Spd
km/h
Gust
km/h
Spd
kts
Gust
kts
25/11:30pm 23.3 23.4 17.5 70 3.6 SE 13 15 7 8 1014.0 1012.6 0.0
25/11:00pm 24.7 24.9 17.7 65 4.4 E 13 17 7 9 1014.0 1012.6 0.0
25/10:30pm 25.0 24.8 16.7 60 5.2 E 13 15 7 8 1014.2 1012.8 0.0
25/10:00pm 25.6 26.0 16.2 56 5.8 E 9 13 5 7 1014.2 1012.8 0.0
25/09:30pm 26.3 25.7 15.7 52 6.5 ENE 13 17 7 9 1013.9 1012.5 0.0
25/09:00pm 27.5 25.5 15.5 48 7.4 ENE 20 28 11 15 1013.6 1012.2 0.0
25/08:30pm 28.1 26.1 15.4 46 7.8 E 20 28 11 15 1013.2 1011.8 0.0
25/08:00pm 29.0 26.5 15.2 43 8.5 E 22 30 12 16 1012.8 1011.4 0.0
25/07:30pm 29.9 27.4 15.2 41 9.1 ENE 22 33 12 18 1012.3 1010.9 0.0
25/07:00pm 31.0 27.3 15.0 38 9.9 ENE 28 35 15 19 1011.6 1010.2 0.0
25/06:30pm 32.5 29.7 13.2 31 11.7 ENE 20 28 11 15 1011.1 1009.7 0.0
25/06:00pm 33.5 30.7 12.5 28 12.7 ENE 19 24 10 13 1010.7 1009.3 0.0
25/05:30pm 34.2 31.2 12.0 26 13.3 E 19 30 10 16 1010.3 1008.9 0.0
25/05:00pm 35.0 32.0 12.6 26 13.6 ENE 20 24 11 13 1010.0 1008.6 0.0
25/04:30pm 35.4 32.7 13.0 26 13.7 E 19 28 10 15 1010.1 1008.7 0.0
25/04:00pm 35.7 34.8 13.8 27 13.6 NNE 11 19 6 10 1010.3 1008.9 0.0
25/03:30pm 35.3 33.9 13.5 27 13.4 E 13 33 7 18 1010.5 1009.1 0.0
25/03:00pm 34.0 33.0 13.5 29 12.6 E 11 17 6 9 1010.9 1009.5 0.0
25/02:30pm 35.4 31.9 13.5 26 13.5 E 24 35 13 19 1011.1 1009.7 0.0
25/02:00pm 35.2 31.9 13.9 27 13.2 E 24 37 13 20 1011.5 1010.1 0.0
25/01:30pm 34.8 33.3 14.1 28 12.8 ENE 15 26 8 14 1011.9 1010.6 0.0
25/01:00pm 33.9 30.8 14.4 31 12.1 ENE 24 33 13 18 1012.5 1011.1 0.0
25/12:30pm 33.7 31.6 15.2 33 11.6 ENE 20 33 11 18 1012.8 1011.4 0.0
25/12:00pm 33.5 31.7 15.9 34 11.1 ESE 20 28 11 15 1013.5 1012.1 0.0
25/11:30am 32.2 29.7 15.2 35 10.6 E 22 35 12 19 1014.2 1012.8 0.0
25/11:00am 32.2 31.0 16.1 38 10.2 ENE 17 22 9 12 1014.5 1013.1 0.0
25/10:30am 30.7 28.7 15.5 39 9.5 E 20 32 11 17 1014.8 1013.4 0.0
25/10:00am 29.9 28.4 16.7 45 8.3 E 20 30 11 16 1015.2 1013.8 0.0
25/09:30am 28.6 27.7 16.8 48 7.4 NE 17 24 9 13 1015.3 1013.9 0.0
25/09:00am 27.8 27.1 17.3 52 6.7 NE 17 26 9 14 1015.3 1013.9 0.0
25/08:30am 27.7 27.8 17.5 53 6.5 ENE 13 22 7 12 1015.4 1014.0 0.0
25/08:00am 26.9 27.7 19.0 62 5.1 ENE 13 22 7 12 1015.5 1014.2 0.0
25/07:30am 25.5 25.6 19.2 68 4.1 ESE 17 24 9 13 1015.3 1013.9 0.0
25/07:00am 24.8 25.5 19.6 73 3.4 E 15 22 8 12 1015.1 1013.7 0.0
25/06:30am 23.4 24.3 19.3 78 2.6 ESE 13 20 7 11 1014.8 1013.4 0.0
25/06:00am 21.9 23.5 19.1 84 1.8 SE 9 11 5 6 1014.5 1013.1 0.0
25/05:30am 20.7 21.4 18.8 89 1.2 ESE 13 13 7 7 1013.9 1012.5 0.0
25/05:00am 20.4 21.0 18.7 90 1.1 E 13 15 7 8 1013.9 1012.5 0.0
25/04:30am 19.9 21.0 17.9 88 1.2 ESE 9 11 5 6 1013.7 1012.3 0.0
25/04:00am 20.1 21.1 17.7 86 1.5 ESE 9 9 5 5 1013.6 1012.2 0.0
25/03:30am 20.5 21.3 18.1 86 1.5 ESE 11 11 6 6 1013.5 1012.1 0.0
25/03:00am 20.8 21.5 18.0 84 1.8 ESE 11 11 6 6 1013.6 1012.2 0.0
25/02:30am 21.1 21.4 17.9 82 2.0 ESE 13 15 7 8 1013.7 1012.3 0.0
25/02:00am 21.1 21.6 17.5 80 2.2 ESE 11 13 6 7 1013.8 1012.4 0.0
25/01:30am 21.5 21.9 17.3 77 2.6 E 11 13 6 7 1013.7 1012.3 0.0
25/01:00am 21.7 22.4 17.1 75 2.8 E 9 11 5 6 1014.0 1012.6 0.0
25/12:30am 21.8 22.4 16.7 73 3.1 ESE 9 11 5 6 1014.3 1012.9 0.0
25/12:00am 22.5 22.8 17.0 71 3.4 E 11 13 6 7 1014.5 1013.1 0.0
 
Date/Time
EST
Temp
°C
App
Temp
°C
Dew
Point
Rel
Hum
%
Delta-T
°C
Wind Press
QNH
hPa
Press
MSL
hPa
Rain
since 9 am
mm
Dir
 
Spd
km/h
Gust
km/h
Spd
kts
Gust
kts
24/11:30pm 23.0 23.7 17.0 69 3.7 E 9 9 5 5 1014.7 1013.3 0.0
24/11:00pm 23.5 24.3 17.3 68 3.9 ENE 9 11 5 6 1014.8 1013.4 0.0
24/10:30pm 24.3 24.8 17.5 66 4.3 ENE 11 15 6 8 1014.8 1013.4 0.0
24/10:00pm 24.8 24.9 17.5 64 4.6 NE 13 19 7 10 1014.7 1013.3 0.0
24/09:30pm 25.2 24.7 17.7 63 4.7 NE 17 24 9 13 1014.5 1013.1 0.0
24/09:00pm 25.7 24.9 17.9 62 5.0 NE 19 26 10 14 1014.3 1012.9 0.0
24/08:30pm 25.9 25.4 17.8 61 5.1 ENE 17 22 9 12 1014.0 1012.6 0.0
24/08:00pm 26.5 24.8 18.1 60 5.4 ENE 24 32 13 17 1013.5 1012.1 0.0
24/07:30pm 27.4 24.2 18.1 57 6.0 ENE 32 41 17 22 1012.9 1011.5 0.0
24/07:00pm 28.3 25.3 17.8 53 6.7 ENE 30 41 16 22 1012.5 1011.1 0.0
24/06:30pm 29.4 25.8 17.2 47 7.8 ENE 32 39 17 21 1011.7 1010.4 0.0
24/06:00pm 31.0 28.3 16.6 42 9.1 ENE 26 35 14 19 1011.1 1009.7 0.0
24/05:30pm 32.2 29.1 16.5 39 10.0 ENE 28 39 15 21 1010.5 1009.1 0.0
24/05:00pm 33.1 29.2 16.5 37 10.6 ENE 32 43 17 23 1010.3 1008.9 0.0
24/04:37pm 33.9 29.7 15.8 33 11.5 E 32 44 17 24 1010.1 1008.7 0.0
24/04:30pm 35.3 34.5 14.0 28 13.2 NE 11 20 6 11 1010.1 1008.7 0.0
24/04:00pm 34.6 33.4 14.0 29 12.8 NE 13 19 7 10 1010.4 1009.0 0.0
24/03:30pm 35.0 32.9 14.8 29 12.7 NNE 19 24 10 13 1010.5 1009.1 0.0
24/03:00pm 34.2 34.0 14.7 31 12.2 N 9 13 5 7 1010.8 1009.4 0.0
24/02:30pm 35.1 34.8 16.4 32 12.0 ENE 13 33 7 18 1011.1 1009.7 0.0
24/02:00pm 34.6 31.9 15.5 32 12.1 ENE 24 39 13 21 1011.6 1010.2 0.0
24/01:30pm 35.1 32.3 13.3 27 13.4 NE 20 32 11 17 1011.9 1010.6 0.0
24/01:00pm 34.2 31.9 14.1 29 12.4 ESE 19 24 10 13 1012.6 1011.2 0.0
24/12:30pm 35.0 32.8 14.8 29 12.7 NE 20 32 11 17 1013.1 1011.7 0.0
24/12:00pm 32.7 30.2 12.3 28 12.2 NE 17 28 9 15 1013.8 1012.4 0.0
24/11:30am 32.1 30.1 13.8 33 11.2 E 17 28 9 15 1014.3 1012.9 0.0
24/11:00am 32.3 29.8 14.0 33 11.2 ENE 20 43 11 23 1015.0 1013.6 0.0
24/10:30am 31.9 29.4 11.1 28 12.2 NNE 15 22 8 12 1015.5 1014.2 0.0
24/10:00am 30.6 29.6 15.5 40 9.4 NNE 15 19 8 10 1015.9 1014.6 0.0
24/09:30am 29.6 29.6 17.1 47 7.9 N 13 20 7 11 1016.2 1014.9 0.0
24/09:00am 28.4 27.3 17.3 51 7.0 E 19 26 10 14 1016.5 1015.2 0.0
24/08:30am 27.7 26.5 17.5 53 6.5 E 20 26 11 14 1016.5 1015.2 0.0
24/08:00am 26.7 25.7 18.8 62 5.1 E 22 30 12 16 1016.5 1015.2 0.0
24/07:30am 25.5 25.5 18.9 67 4.3 E 17 24 9 13 1016.5 1015.2 0.0
24/07:00am 23.8 24.0 19.3 76 2.9 E 17 22 9 12 1016.4 1015.1 0.0
24/06:30am 22.3 23.1 19.1 82 2.0 E 13 17 7 9 1016.3 1015.0 0.0
24/06:00am 20.8 22.2 18.6 87 1.4 E 9 11 5 6 1016.0 1014.7 0.0
24/05:30am 18.9 19.1 17.7 93 0.7 ESE 13 13 7 7 1015.8 1014.5 0.0
24/05:00am 18.8 18.6 17.6 93 0.7 SE 15 15 8 8 1015.5 1014.2 0.0
24/04:30am 19.0 19.2 17.7 92 0.8 ESE 13 15 7 8 1015.3 1013.9 0.0
24/04:00am 19.0 19.4 17.3 90 1.0 SE 11 13 6 7 1015.2 1013.8 0.0
24/03:30am 19.1 19.1 17.1 88 1.2 SE 13 15 7 8 1015.1 1013.7 0.0
24/03:00am 19.3 19.7 16.3 83 1.8 E 9 11 5 6 1015.0 1013.6 0.0
24/02:30am 20.0 21.1 17.0 83 1.8 E 7 9 4 5 1015.1 1013.7 0.0
24/02:00am 20.5 20.8 17.1 81 2.1 E 11 13 6 7 1015.2 1013.8 0.0
24/01:30am 21.0 22.1 17.2 79 2.3 E 7 9 4 5 1015.3 1013.9 0.0
24/01:00am 21.7 22.3 17.7 78 2.5 E 11 13 6 7 1015.6 1014.3 0.0
24/12:30am 22.3 22.6 17.9 76 2.8 E 13 15 7 8 1016.0 1014.7 0.0
24/12:00am 22.5 22.7 17.6 74 3.1 E 13 15 7 8 1016.0 1014.7 0.0
 
Date/Time
EST
Temp
°C
App
Temp
°C
Dew
Point
Rel
Hum
%
Delta-T
°C
Wind Press
QNH
hPa
Press
MSL
hPa
Rain
since 9 am
mm
Dir
 
Spd
km/h
Gust
km/h
Spd
kts
Gust
kts
23/11:30pm 23.0 23.6 17.7 72 3.3 E 11 13 6 7 1016.1 1014.8 0.0
23/11:00pm 23.4 24.2 17.2 68 3.9 E 9 11 5 6 1016.2 1014.9 0.0
23/10:30pm 23.5 24.1 16.8 66 4.2 E 9 11 5 6 1015.9 1014.6 0.0
23/10:00pm 24.9 25.1 17.6 64 4.6 E 13 17 7 9 1015.7 1014.4 0.0
23/09:30pm 25.3 25.5 17.7 62 4.8 E 13 17 7 9 1015.2 1013.8 0.0
23/09:00pm 26.2 25.7 17.8 60 5.3 ENE 17 22 9 12 1014.6 1013.2 0.0
23/08:30pm 27.1 26.7 18.1 58 5.8 NE 17 26 9 14 1014.2 1012.8 0.0
23/08:00pm 27.9 26.2 18.0 55 6.3 NE 24 35 13 19 1013.6 1012.2 0.0
23/07:30pm 29.4 26.7 17.6 49 7.6 ENE 28 41 15 22 1013.2 1011.8 0.0
23/07:00pm 30.8 27.5 16.0 40 9.3 ENE 28 35 15 19 1012.9 1011.5 0.0
23/06:30pm 32.6 28.7 13.3 31 11.7 ENE 26 35 14 19 1012.3 1010.9 0.0
23/06:00pm 34.0 30.0 12.9 28 12.8 ENE 26 35 14 19 1011.7 1010.4 0.0
23/05:30pm 35.3 32.0 11.7 24 14.1 E 20 32 11 17 1011.4 1010.0 0.0
23/05:00pm 35.8 31.9 12.1 24 14.3 E 24 35 13 19 1011.3 1009.9 0.0
23/04:30pm 36.2 32.0 11.1 22 15.0 ESE 24 33 13 18 1011.4 1010.0 0.0
23/04:00pm 36.2 31.6 11.1 22 15.0 ESE 26 33 14 18 1011.6 1010.2 0.0
23/03:30pm 37.1 34.7 12.5 23 15.0 E 17 26 9 14 1011.8 1010.5 0.0
23/03:00pm 36.3 32.0 11.9 23 14.7 E 26 30 14 16 1012.3 1010.9 0.0
23/02:53pm 36.5 32.0 12.7 24 14.5 SSE 28 46 15 25 1012.1 1010.8 0.0
23/02:30pm 36.3 34.4 13.1 25 14.2 ESE 15 32 8 17 1012.7 1011.3 0.0
23/02:00pm 36.3 33.7 13.1 25 14.2 ENE 19 32 10 17 1013.1 1011.7 0.0
23/01:30pm 34.9 33.6 13.7 28 13.1 E 13 24 7 13 1013.8 1012.4 0.0
23/01:00pm 34.6 31.7 12.9 27 13.2 ENE 20 33 11 18 1014.3 1012.9 0.0
23/12:30pm 35.0 33.7 13.8 28 13.1 E 13 30 7 16 1014.8 1013.4 0.0
23/12:00pm 34.2 33.4 14.1 29 12.4 NE 11 20 6 11 1015.1 1013.7 0.0

Other Formats:

Comma delimited format used in spreadsheet applications
http://www.bom.gov.au/fwo/IDQ60801/IDQ60801.94397.axf

JavaScript Object Notation format (JSON) in row-major order
http://www.bom.gov.au/fwo/IDQ60801/IDQ60801.94397.json